Terminal Aerodrome Forecast
Issued by NWS

Home | Current Version | Previous Version | Text Only | Print | Product List | Glossary On
Versions: 1 2 3 4 5 6 7 8 9 10 11 12 13 14
014
FTUS45 KPSR 060522
TAFBLH
TAF
KBLH 060522Z 0606/0706 23020G28KT P6SM FEW250
     FM060900 21007KT P6SM SCT080 SCT120
     FM061800 18014G20KT P6SM VCSH FEW060 BKN080 BKN120
     FM062200 22016G25KT P6SM VCSH SCT060 BKN080 BKN120
     FM070300 23012KT P6SM FEW060 BKN100 BKN150=

USA.gov is the U.S. government's official web portal to all federal, state and local government web resources and services.